x

New London Ledge Ct - Ledge Light Weather Station (ldlc3) Weather Station

1:45am - Mon 26th Jan 2015 All times are EST. -5 hours from GMT.

  • Wind
    18mph, 23mph gusts
  • 空気 Temp 24°f
  • Sea Pressure 1015.5mb
  • New London Ledge Ct - Ledge Light Weather Station
  • New London Ledge Ct - Ledge Light Weather Station

More Historic Weather Station data

Upgrade to MSW Pro to gain access to the past 30 days of data for over 8000 Wavebouys and Weather Stations around the globe.

Join Pro

Comparision Forecast

View Surf forecast
   
Mon 01/26 1:45am 18 23 mph 1015.5mb 24f
1:30am 16 21 mph 1015.7mb 24f
1:15am 17 22 mph 1015.6mb 24f
1:00am 18 23 mph 1015.5mb 25f
12:45am 21 24 mph 1015.1mb 25f
12:30am 21 24 mph 1015.1mb 25f
12:15am 22 25 mph 1015.1mb 25f
12:00am 21 23 mph 1015.3mb 25f
Sun 01/25 6:45pm 11 15 mph 1011.4mb 33f
6:30pm 13 15 mph 1011.1mb 33f
6:15pm 9 11 mph 1010.9mb 33f
6:00pm 9 10 mph 1010.5mb 34f
5:45pm 8 9 mph 1010.2mb 34f
5:30pm 11 14 mph 1009.6mb 34f
5:15pm 14 16 mph 1009mb 34f
5:00pm 16 18 mph 1008.4mb 35f
4:45pm 14 17 mph 1008.4mb 35f
4:30pm 14 17 mph 1008mb 36f
4:15pm 20 25 mph 1007.8mb 36f
4:00pm 16 21 mph 1007.5mb 37f
3:45pm 22 28 mph 1006.9mb 37f
3:30pm 20 26 mph 1006.8mb 37f
3:15pm 26 31 mph 1006.2mb 38f
3:00pm 24 31 mph 1006mb 39f
2:45pm 23 30 mph 1005.8mb 39f
2:30pm 26 32 mph 1005.6mb 39f
2:15pm 22 26 mph 1005.3mb 39f
2:00pm 20 24 mph 1005.2mb 39f
1:45pm 24 31 mph 1004.8mb 40f
1:30pm 24 31 mph 1004.5mb 40f
1:15pm 30 34 mph 1004.2mb 40f
1:00pm 24 30 mph 1004.1mb 40f
12:45pm 23 28 mph 1003.6mb 40f
12:30pm 22 30 mph 1003.5mb 40f
12:15pm 20 25 mph 1003.6mb 40f
12:00pm 20 24 mph 1003.7mb 39f
11:45am 20 25 mph 1003.7mb 39f
11:30am 15 21 mph 1004mb 39f
11:15am 24 29 mph 1003.4mb 38f
11:00am 30 34 mph 1003.2mb 38f
10:45am 30 34 mph 1003.3mb 38f
10:30am 30 38 mph 1003mb 38f
10:15am 32 38 mph 1002.8mb 38f
10:00am 32 39 mph 1002.4mb 38f
9:45am 33 39 mph 1001.9mb 38f
9:30am 32 40 mph 1001.8mb 38f
9:15am 26 32 mph 1002.2mb 38f
9:00am 26 32 mph 1001.9mb 37f
8:45am 24 30 mph 1001.7mb 37f
8:30am 25 30 mph 1001.5mb 37f
8:15am 25 31 mph 1001.2mb 37f
8:00am 21 28 mph 1001.3mb 36f
7:45am 21 28 mph 1001.2mb 36f
7:30am 16 21 mph 1001.2mb 35f
7:15am 17 22 mph 1001mb 34f
7:00am 14 17 mph 1000.8mb 34f
6:45am 11 14 mph 1000.7mb 33f
6:30am 11 13 mph 1000.4mb 33f
6:15am 13 15 mph 1000mb 33f
6:00am 14 18 mph 999.7mb 33f
5:45am 15 18 mph 999.5mb 33f
5:30am 15 17 mph 999.1mb 33f
5:15am 17 21 mph 999mb 33f
5:00am 16 21 mph 998.6mb 33f
4:45am 16 18 mph 998.4mb 34f
4:30am 17 18 mph 998.3mb 34f
4:15am 17 20 mph 998.3mb 34f
4:00am 16 21 mph 998.2mb 33f
3:45am 20 24 mph 998mb 33f
3:30am 16 18 mph 998mb 33f
3:15am 17 21 mph 997.7mb 33f
3:00am 16 18 mph 997.4mb 33f
2:45am 13 15 mph 997.4mb 33f
2:30am 15 20 mph 997.2mb 33f
2:15am 17 21 mph 997mb 33f
2:00am 13 18 mph 996.7mb 33f
1:45am 11 15 mph 996.3mb 33f
1:30am 14 17 mph 995.7mb 34f
1:15am 17 23 mph 995.4mb 34f
1:00am 18 24 mph 995.3mb 34f
12:45am 18 25 mph 994.8mb 34f
12:30am 21 26 mph 994.6mb 34f
12:15am 17 23 mph 994.6mb 34f
12:00am 14 20 mph 994.6mb 33f
Sat 01/24 6:45pm 15 20 mph 990.1mb 35f
6:30pm 14 17 mph 989.8mb 36f
6:15pm 16 20 mph 989.3mb 36f
6:00pm 16 20 mph 989mb 36f
5:45pm 16 20 mph 988.6mb 36f
5:30pm 22 26 mph 988.2mb 36f
5:15pm 24 28 mph - 36f
5:00pm 23 29 mph - 36f
4:45pm 26 31 mph - 36f
4:30pm 25 30 mph - 36f
4:15pm 25 30 mph - 35f
4:00pm 23 29 mph - 35f
3:45pm 22 25 mph - 35f
3:30pm 23 29 mph - 36f
3:15pm 23 29 mph - 35f
3:00pm 23 26 mph - 35f
2:45pm 22 26 mph - 35f
2:30pm 21 25 mph 988mb 35f
2:15pm 20 23 mph 988.9mb 35f
2:00pm 20 22 mph 990.3mb 36f
1:45pm 20 24 mph 990.2mb 36f
1:30pm 21 24 mph 989.3mb 35f
1:15pm 22 26 mph 990mb 35f
1:00pm 23 26 mph 991.6mb 35f
12:45pm 21 24 mph 992.1mb 35f
12:30pm 21 30 mph 991.9mb 35f
12:15pm 20 24 mph 993.7mb 35f
12:00pm 18 24 mph 993.5mb 35f
11:45am 18 23 mph 994.5mb 35f
11:30am 18 24 mph 995.5mb 35f
11:15am 20 23 mph 995.9mb 35f
11:00am 20 25 mph 996.2mb 35f
10:45am 18 22 mph 996.9mb 35f
10:30am 17 21 mph 997.5mb 35f
10:15am 17 22 mph 998.4mb 35f
10:00am 14 18 mph 999.2mb 35f
9:45am 15 17 mph 1000mb 34f
9:30am 13 15 mph 1000.3mb 34f
9:15am 10 13 mph 1000.9mb 34f
9:00am 9 11 mph 1001.3mb 34f
8:45am 10 11 mph 1001.7mb 34f
8:30am 6 9 mph 1002.1mb 34f
8:15am 7 8 mph 1002.4mb 34f
8:00am 7 9 mph 1002.9mb 34f
7:45am 10 13 mph 1002.9mb 34f
7:30am 10 13 mph 1003.6mb 33f
7:15am 13 15 mph 1003.7mb 33f
7:00am 13 16 mph 1004mb 33f
6:45am 13 15 mph 1004.2mb 33f
6:30am 8 10 mph 1005.4mb 33f
6:15am 6 7 mph 1005.8mb 33f
6:00am 5 6 mph 1006.2mb 32f
5:45am 6 7 mph 1006.8mb 32f
5:30am 5
mph
1007.2mb 32f
5:15am 2 3 mph 1007.5mb 32f
5:00am 2
mph
1008.3mb 33f
4:45am 3
mph
1008.6mb 33f
4:30am 5 6 mph 1008.9mb 33f
4:15am 6 7 mph 1009.1mb 33f
4:00am 7
mph
1009.4mb 33f
3:45am 11 13 mph 1009.9mb 33f
3:30am 14 16 mph 1010mb 33f
3:15am 17 18 mph 1010.3mb 35f
3:00am 17 21 mph 1010.6mb 36f
2:45am 16 17 mph 1010.5mb 36f
2:30am 16 18 mph 1010.6mb 36f
2:15am 17 20 mph 1011.1mb 37f
2:00am 18 20 mph 1011.3mb 37f
1:45am 17 20 mph 1011.8mb 37f
1:30am 22 25 mph 1012.1mb 37f
1:15am 21 24 mph 1012.4mb 37f
1:00am 24 26 mph 1012.7mb 37f
12:45am 21 23 mph 1013.2mb 37f
12:30am 23 28 mph 1013.4mb 37f
12:15am 22 24 mph 1013.7mb 37f
12:00am 22 26 mph 1013.9mb 37f
Fri 01/23 6:45pm 20 22 mph 1018.3mb 34f
6:30pm 18 21 mph 1018.5mb 34f
6:15pm 20 23 mph 1018.7mb 34f
6:00pm 16 18 mph 1018.4mb 34f
5:45pm 14 15 mph 1018mb 34f
5:30pm 16 20 mph 1018.2mb 34f
5:15pm 17 21 mph 1018.5mb 34f
5:00pm 15 18 mph 1018.4mb 34f
4:45pm 17 20 mph 1018.8mb 34f
4:30pm 16 18 mph 1018.8mb 34f
4:15pm 14 17 mph 1018.8mb 34f
4:00pm 15 18 mph 1019.2mb 34f
3:45pm 17 20 mph 1019.3mb 34f
3:30pm 15 17 mph 1019.4mb 34f
3:15pm 16 18 mph 1019.6mb 34f
3:00pm 16 18 mph 1019.8mb 33f
2:45pm 16 20 mph 1020mb 34f
2:30pm 17 20 mph 1020mb 34f
2:15pm 16 18 mph 1020.1mb 34f
2:00pm 16 20 mph 1020.4mb 34f
1:45pm 15 18 mph 1020.6mb 33f
1:30pm 16 18 mph 1020.6mb 32f
1:15pm 15 17 mph 1020.8mb 32f
1:00pm 14 16 mph 1021.1mb 32f
12:45pm 16 20 mph 1021.6mb 33f
12:30pm 15 18 mph 1022mb 33f
12:15pm 15 20 mph 1022.4mb 34f
12:00pm 13 15 mph 1022.7mb 33f
11:45am 11 15 mph 1022.9mb 32f
11:30am 11 15 mph 1023.5mb 33f
11:15am 11 14 mph 1023.9mb 31f
11:00am 8 11 mph 1024mb 31f
10:45am 9 11 mph 1024.3mb 31f
10:30am 9 11 mph 1024.6mb 30f
10:15am 6 8 mph 1024.8mb 31f
10:00am 7 8 mph 1025.1mb 30f
9:45am 5
mph
1025.2mb 31f
9:30am 7 8 mph 1025.4mb 30f
9:15am 6 8 mph 1025.4mb 30f
9:00am 5 7 mph 1025.7mb 30f
8:45am 6 7 mph 1025.6mb 29f
8:30am 8 10 mph 1025.8mb 28f
8:15am 10 11 mph 1025.9mb 27f
8:00am 9 10 mph 1026.1mb 27f
7:45am 9 10 mph 1026.1mb 27f
7:30am 8 9 mph 1025.9mb 26f
7:15am 6 8 mph 1025.7mb 26f
7:00am 8 9 mph 1025.5mb 26f
6:45am 9 11 mph 1025.3mb 26f
6:25am 11 14 mph 1025.2mb 27f
6:15am 14 17 mph 1025mb 27f
6:00am 15 18 mph 1024.8mb 27f
5:45am 13 16 mph 1025mb 27f
5:30am 13 15 mph 1024.9mb 27f
5:15am 13 16 mph 1024.7mb 27f
5:00am 10 13 mph 1024.6mb 27f
4:45am 10 13 mph 1024.6mb 27f
4:30am 11 14 mph 1024.4mb 27f
4:15am 9 14 mph 1024.1mb 27f
4:00am 13 16 mph 1024mb 28f
3:45am 20 23 mph 1023.9mb 28f
3:30am 16 21 mph 1024mb 27f
3:15am 14 17 mph 1024.2mb 27f
3:00am 15 18 mph 1024.2mb 27f
2:45am 15 18 mph 1024.4mb 27f
2:30am 14 16 mph 1024.6mb 28f
2:15am 13 16 mph 1024.6mb 28f
2:00am 11 15 mph 1024.6mb 28f
1:45am 13 16 mph 1024.6mb 28f
1:30am 11 15 mph 1024.5mb 28f
1:15am 13 14 mph 1024.1mb 28f
1:00am 11 14 mph 1024.1mb 29f
12:45am 9 13 mph 1024mb 29f
12:25am 13 15 mph 1024mb 29f
12:15am 14 16 mph 1024mb 29f
12:00am 10 11 mph 1023.9mb 29f
Thu 01/22 6:45pm 8 9 mph 1023.5mb 34f
6:30pm 8 9 mph 1023.5mb 35f
6:15pm 9 10 mph 1023.2mb 35f
6:00pm 8 10 mph 1022.9mb 36f
5:45pm 6 7 mph 1022.8mb 36f
5:30pm 5 7 mph 1022.5mb 36f
5:15pm 9 10 mph 1022.4mb 36f
4:55pm 9 11 mph 1022.1mb 36f
4:45pm 8 11 mph 1022mb 36f
4:30pm 6 8 mph 1021.9mb 36f
4:15pm 2 3 mph 1021.9mb 37f
4:00pm 2 3 mph 1021.8mb 37f
3:45pm 2 5 mph 1021.6mb 37f
3:30pm 3 5 mph 1021.4mb 36f
3:15pm 3 5 mph 1021.3mb 36f
3:00pm 5
mph
1021.3mb 35f
2:45pm 5 6 mph 1021.2mb 35f
2:30pm 5 6 mph 1021.3mb 35f
2:15pm 2 3 mph 1021.4mb 35f
2:00pm 2 3 mph 1021.4mb 36f
1:45pm 2 3 mph 1021.4mb 36f
1:30pm  -  2 mph 1021.3mb 36f
1:15pm 1 2 mph 1021.5mb 35f
1:00pm 3 5 mph 1021.6mb 34f
12:45pm 3 6 mph 1021.6mb 34f
12:30pm 5 6 mph 1021.8mb 34f
12:15pm 3 6 mph 1021.8mb 33f
12:00pm 5 6 mph 1021.8mb 33f
11:45am 5 6 mph 1021.8mb 33f
11:30am 5 6 mph 1021.8mb 33f
11:15am 6 7 mph 1021.8mb 33f
11:00am 9 11 mph 1021.8mb 32f
10:45am 10 11 mph 1021.8mb 32f
10:30am 10 13 mph 1021.8mb 32f
10:15am 9 11 mph 1021.8mb 32f
10:00am 10 11 mph 1021.8mb 32f
9:45am 10 11 mph 1021.8mb 32f
9:30am 10 13 mph 1021.7mb 32f
9:15am 10 13 mph 1021.5mb 32f
8:55am 10 13 mph 1021.4mb 32f
8:45am 9 11 mph 1021.4mb 32f
8:30am 7 9 mph 1021.3mb 32f
8:15am 8 9 mph 1021.2mb 32f
8:00am 9 11 mph 1021mb 32f
7:45am 10 11 mph 1020.8mb 32f
7:30am 9 11 mph 1020.6mb 32f